createdAt,value
2023-03-06T00:00:48.513Z,28.25
2023-03-06T00:03:16.389Z,27.88
2023-03-06T00:05:45.515Z,28.55
2023-03-06T00:08:13.347Z,27.13
2023-03-06T00:10:41.415Z,27.58
2023-03-06T00:13:11.830Z,27.40
2023-03-06T00:15:39.663Z,27.08
2023-03-06T00:18:07.957Z,27.30
2023-03-06T00:20:36.177Z,27.50
2023-03-06T00:23:05.384Z,27.05
2023-03-06T00:25:36.801Z,26.30
2023-03-06T00:28:04.620Z,26.75
2023-03-06T00:30:32.908Z,27.15
2023-03-06T00:33:00.689Z,25.42
2023-03-06T00:35:28.498Z,25.88
2023-03-06T00:37:57.815Z,25.52
2023-03-06T00:40:27.196Z,25.23
2023-03-06T00:42:54.969Z,25.73
2023-03-06T00:45:22.768Z,25.90
2023-03-06T00:47:50.801Z,25.17
2023-03-06T00:50:18.631Z,26.17
2023-03-06T00:52:46.370Z,27.17
2023-03-06T00:55:14.177Z,26.75
2023-03-06T00:57:43.347Z,26.95
2023-03-06T01:00:12.190Z,26.75
2023-03-06T01:02:40.231Z,25.52
2023-03-06T01:05:08.536Z,24.38
2023-03-06T01:07:36.963Z,24.38
2023-03-06T01:10:05.124Z,25.75
2023-03-06T01:12:32.932Z,24.60
2023-03-06T01:15:02.080Z,24.65
2023-03-06T01:17:29.898Z,24.98
2023-03-06T01:19:58.836Z,24.25
2023-03-06T01:22:26.643Z,24.95
2023-03-06T01:24:54.541Z,24.67
2023-03-06T01:27:22.630Z,25.48
2023-03-06T01:29:50.428Z,23.52
2023-03-06T01:32:19.673Z,24.45
2023-03-06T01:34:47.487Z,26.27
2023-03-06T01:37:15.289Z,24.58
2023-03-06T01:39:43.111Z,25.13
2023-03-06T01:42:10.952Z,23.40
2023-03-06T01:44:38.746Z,24.70
2023-03-06T01:47:07.990Z,26.25
2023-03-06T01:49:39.027Z,24.83
2023-03-06T01:52:08.091Z,25.02
2023-03-06T01:54:38.751Z,26.08
2023-03-06T01:57:08.046Z,25.42
2023-03-06T01:59:36.401Z,26.25
2023-03-06T02:02:04.607Z,25.33
2023-03-06T02:04:32.698Z,25.55
2023-03-06T02:07:04.734Z,24.80
2023-03-06T02:09:35.013Z,24.65
2023-03-06T02:12:03.723Z,25.45
2023-03-06T02:14:31.517Z,24.00
2023-03-06T02:16:59.502Z,27.05
2023-03-06T02:19:33.733Z,28.23
2023-03-06T02:22:03.575Z,27.77
2023-03-06T02:24:38.123Z,26.13
2023-03-06T02:27:08.971Z,29.08
2023-03-06T02:29:36.789Z,28.92
2023-03-06T02:32:05.028Z,25.92
2023-03-06T02:34:47.463Z,24.85
2023-03-06T02:37:15.201Z,29.65
2023-03-06T02:39:44.586Z,25.60
2023-03-06T02:42:17.994Z,28.13
2023-03-06T02:44:46.179Z,26.90
2023-03-06T02:47:14.456Z,27.85
2023-03-06T02:49:42.212Z,32.67
2023-03-06T02:52:10.054Z,29.48
2023-03-06T02:54:40.211Z,30.63
2023-03-06T02:57:08.740Z,32.53
2023-03-06T02:59:38.411Z,30.70
2023-03-06T03:02:07.174Z,27.73
2023-03-06T03:04:35.074Z,26.20
2023-03-06T03:07:03.892Z,24.15
2023-03-06T03:09:36.770Z,25.67
2023-03-06T03:12:06.269Z,24.92
2023-03-06T03:14:34.753Z,24.83
2023-03-06T03:17:05.114Z,24.90
2023-03-06T03:19:32.920Z,23.98
2023-03-06T03:22:00.786Z,24.58
2023-03-06T03:24:28.657Z,26.02
2023-03-06T03:26:56.442Z,26.80
2023-03-06T03:29:25.601Z,26.00
2023-03-06T03:31:54.463Z,28.55
2023-03-06T03:34:27.109Z,27.00
2023-03-06T03:36:55.310Z,28.05
2023-03-06T03:39:23.146Z,30.45
2023-03-06T03:41:51.011Z,26.05
2023-03-06T03:44:20.230Z,25.67
2023-03-06T03:46:49.746Z,24.92
2023-03-06T03:49:21.840Z,24.92
2023-03-06T03:51:51.054Z,24.98
2023-03-06T03:54:20.050Z,26.05
2023-03-06T03:56:50.253Z,26.85
2023-03-06T03:59:24.283Z,25.23
2023-03-06T04:02:08.719Z,24.58
2023-03-06T04:04:43.514Z,26.02
2023-03-06T04:07:13.449Z,24.60
2023-03-06T04:09:42.008Z,26.20
2023-03-06T04:12:10.101Z,24.58
2023-03-06T04:14:38.514Z,26.15
2023-03-06T04:17:06.801Z,25.70
2023-03-06T04:19:34.764Z,24.58
2023-03-06T04:22:03.146Z,25.15
2023-03-06T04:24:34.493Z,26.20
2023-03-06T04:27:03.134Z,28.10
2023-03-06T04:29:31.055Z,30.17
2023-03-06T04:31:58.937Z,24.85
2023-03-06T04:34:26.795Z,24.67
2023-03-06T04:36:54.657Z,27.95
2023-03-06T04:39:22.456Z,40.25
2023-03-06T04:41:51.795Z,33.40
2023-03-06T04:44:19.628Z,28.05
2023-03-06T04:46:47.360Z,29.15
2023-03-06T04:49:15.126Z,25.77
2023-03-06T04:51:42.885Z,24.35
2023-03-06T04:54:10.654Z,23.48
2023-03-06T04:56:38.472Z,24.58
2023-03-06T04:59:07.720Z,28.70
2023-03-06T05:01:35.504Z,25.50
2023-03-06T05:04:03.282Z,25.10
2023-03-06T05:06:31.012Z,24.52
2023-03-06T05:08:58.904Z,25.50
2023-03-06T05:11:28.127Z,26.63
2023-03-06T05:13:55.923Z,24.27
2023-03-06T05:16:25.045Z,23.27
2023-03-06T05:18:53.009Z,24.55
2023-03-06T05:21:20.780Z,24.88
2023-03-06T05:23:48.603Z,25.92
2023-03-06T05:26:16.893Z,24.13
2023-03-06T05:28:45.104Z,25.88
2023-03-06T05:31:13.071Z,25.80
2023-03-06T05:33:42.216Z,24.17
2023-03-06T05:36:10.382Z,23.42
2023-03-06T05:38:38.173Z,25.90
2023-03-06T05:41:06.130Z,24.13
2023-03-06T05:43:34.700Z,23.42
2023-03-06T05:46:03.459Z,23.17
2023-03-06T05:48:31.445Z,23.73
2023-03-06T05:51:01.447Z,37.75
2023-03-06T05:53:30.063Z,27.25
2023-03-06T05:55:58.768Z,25.30
2023-03-06T05:58:26.611Z,26.50
2023-03-06T06:00:54.408Z,25.77
2023-03-06T06:03:22.354Z,25.95
2023-03-06T06:05:50.130Z,24.52
2023-03-06T06:08:19.444Z,24.15
2023-03-06T06:10:47.260Z,24.48
2023-03-06T06:13:15.367Z,23.48
2023-03-06T06:15:43.228Z,24.35
2023-03-06T06:18:11.112Z,24.92
2023-03-06T06:20:39.004Z,24.80
2023-03-06T06:23:06.822Z,23.85
2023-03-06T06:25:35.975Z,22.58
2023-03-06T06:28:04.665Z,24.83
2023-03-06T06:30:32.984Z,24.00
2023-03-06T06:33:00.905Z,24.33
2023-03-06T06:35:28.911Z,22.88
2023-03-06T06:37:56.733Z,23.52
2023-03-06T06:40:24.569Z,22.15
2023-03-06T06:42:54.753Z,22.98
2023-03-06T06:45:22.637Z,23.05
2023-03-06T06:47:51.202Z,21.33
2023-03-06T06:50:19.216Z,22.90
2023-03-06T06:52:46.934Z,24.23
2023-03-06T06:55:14.784Z,22.10
2023-03-06T06:57:42.978Z,23.05
2023-03-06T07:00:13.879Z,24.70
2023-03-06T07:02:41.837Z,25.83
2023-03-06T07:05:11.209Z,25.85
2023-03-06T07:07:39.278Z,23.00
2023-03-06T07:10:08.526Z,23.23
2023-03-06T07:12:37.699Z,20.35
2023-03-06T07:15:08.855Z,21.83
2023-03-06T07:17:38.087Z,23.02
2023-03-06T07:20:07.163Z,20.58
2023-03-06T07:22:48.703Z,22.50
2023-03-06T07:25:18.468Z,20.80
2023-03-06T07:27:52.693Z,21.35
2023-03-06T07:30:21.135Z,21.40
2023-03-06T07:32:53.285Z,21.48
2023-03-06T07:35:21.141Z,22.60
2023-03-06T07:37:48.994Z,22.42
2023-03-06T07:40:16.750Z,24.17
2023-03-06T07:42:44.666Z,23.25
2023-03-06T07:45:16.913Z,22.48
2023-03-06T07:47:44.670Z,22.27
2023-03-06T07:50:14.007Z,23.02
2023-03-06T07:52:41.715Z,22.23
2023-03-06T07:55:10.344Z,21.45
2023-03-06T07:57:38.300Z,21.42
2023-03-06T08:00:07.397Z,21.45
2023-03-06T08:02:41.369Z,23.02
2023-03-06T08:05:09.789Z,21.00
2023-03-06T08:07:38.904Z,21.30
2023-03-06T08:10:07.064Z,21.52
2023-03-06T08:12:34.803Z,20.75
2023-03-06T08:15:02.651Z,19.92
2023-03-06T08:17:30.510Z,21.02
2023-03-06T08:19:58.508Z,19.90
2023-03-06T08:22:26.389Z,20.05
2023-03-06T08:24:57.208Z,20.45
2023-03-06T08:27:25.068Z,20.33
2023-03-06T08:29:52.829Z,19.58
2023-03-06T08:32:20.590Z,19.05
2023-03-06T08:34:48.347Z,19.17
2023-03-06T08:37:16.096Z,18.88
2023-03-06T08:39:43.840Z,18.10
2023-03-06T08:42:12.884Z,19.27
2023-03-06T08:44:40.682Z,19.05
2023-03-06T08:47:08.516Z,18.58
2023-03-06T08:49:39.546Z,20.75
2023-03-06T08:52:08.248Z,19.45
2023-03-06T08:54:39.247Z,21.00
2023-03-06T08:57:07.657Z,21.13
2023-03-06T08:59:37.251Z,21.58
2023-03-06T09:02:07.585Z,20.75
2023-03-06T09:04:35.616Z,19.00
2023-03-06T09:07:03.383Z,19.92
2023-03-06T09:09:31.193Z,19.55
2023-03-06T09:11:58.954Z,18.63
2023-03-06T09:14:26.701Z,18.55
2023-03-06T09:16:55.857Z,18.63
2023-03-06T09:19:24.242Z,18.77
2023-03-06T09:21:53.943Z,17.08
2023-03-06T09:24:21.747Z,18.85
2023-03-06T09:26:51.604Z,18.60
2023-03-06T09:29:19.486Z,19.10
2023-03-06T09:31:47.204Z,18.25
2023-03-06T09:34:16.465Z,19.42
2023-03-06T09:36:56.069Z,18.55
2023-03-06T09:39:25.075Z,19.25
2023-03-06T09:41:53.394Z,24.90
2023-03-06T09:44:22.296Z,22.73
2023-03-06T09:47:03.860Z,21.88
2023-03-06T09:49:49.150Z,19.85
2023-03-06T09:52:31.774Z,19.90
2023-03-06T09:55:01.700Z,18.33
2023-03-06T09:57:31.882Z,17.77
2023-03-06T10:00:04.032Z,18.92
2023-03-06T10:02:36.948Z,17.88
2023-03-06T10:05:09.546Z,17.80
2023-03-06T10:07:43.515Z,17.48
2023-03-06T10:10:16.560Z,16.50
2023-03-06T10:12:47.263Z,16.42
2023-03-06T10:15:17.070Z,16.52
2023-03-06T10:17:45.096Z,17.60
2023-03-06T10:20:18.860Z,16.60
2023-03-06T10:22:58.529Z,16.30
2023-03-06T10:25:29.579Z,16.50
2023-03-06T10:27:59.117Z,17.27
2023-03-06T10:30:34.821Z,17.30
2023-03-06T10:33:07.605Z,16.73
2023-03-06T10:35:44.192Z,18.33
2023-03-06T10:38:14.693Z,17.65
2023-03-06T10:40:45.853Z,15.63
2023-03-06T10:43:13.619Z,16.20
2023-03-06T10:45:51.486Z,17.15
2023-03-06T10:48:20.784Z,16.20
2023-03-06T10:50:50.078Z,15.50
2023-03-06T10:53:21.412Z,16.35
2023-03-06T10:55:52.078Z,17.38
2023-03-06T10:58:20.823Z,16.95
2023-03-06T11:00:48.561Z,16.45
2023-03-06T11:03:21.697Z,15.88
2023-03-06T11:06:04.725Z,16.40
2023-03-06T11:08:32.925Z,15.38
2023-03-06T11:11:02.342Z,16.50
2023-03-06T11:13:31.364Z,16.58
2023-03-06T11:16:04.033Z,15.63
2023-03-06T11:18:35.141Z,17.38
2023-03-06T11:21:07.214Z,17.23
2023-03-06T11:23:39.637Z,16.00
2023-03-06T11:26:18.678Z,16.00
2023-03-06T11:28:48.260Z,16.75
2023-03-06T11:31:17.471Z,15.27
2023-03-06T11:33:48.201Z,15.73
2023-03-06T11:36:19.837Z,17.00
2023-03-06T11:38:50.026Z,18.00
2023-03-06T11:41:22.528Z,17.05
2023-03-06T11:43:54.057Z,14.48
2023-03-06T11:46:24.356Z,16.15
2023-03-06T11:48:54.353Z,17.05
2023-03-06T11:51:25.875Z,14.52
2023-03-06T11:53:54.509Z,16.42
2023-03-06T11:56:32.582Z,15.35
2023-03-06T11:59:19.013Z,16.08
2023-03-06T12:01:49.216Z,15.35
2023-03-06T12:04:32.076Z,14.77
2023-03-06T12:07:06.068Z,16.15
2023-03-06T12:09:41.869Z,14.65
2023-03-06T12:12:19.361Z,15.85
2023-03-06T12:14:53.379Z,15.48
2023-03-06T12:17:27.572Z,16.60
2023-03-06T12:19:59.926Z,17.38
2023-03-06T12:22:57.427Z,15.93
2023-03-06T12:25:34.040Z,14.98
2023-03-06T12:28:07.914Z,16.02
2023-03-06T12:30:41.333Z,16.60
2023-03-06T12:33:15.757Z,14.98
2023-03-06T12:35:50.581Z,15.00
2023-03-06T12:38:36.691Z,13.77
2023-03-06T12:41:16.636Z,15.25
2023-03-06T12:43:54.937Z,14.23
2023-03-06T12:46:25.713Z,15.68
2023-03-06T12:48:59.216Z,16.63
2023-03-06T12:51:27.583Z,16.02
2023-03-06T12:53:56.046Z,16.33
2023-03-06T12:56:25.290Z,14.18
2023-03-06T12:58:54.889Z,16.17
2023-03-06T13:01:36.968Z,19.23
2023-03-06T13:04:17.585Z,14.63
2023-03-06T13:06:56.182Z,14.35
2023-03-06T13:09:28.408Z,13.35
2023-03-06T13:12:09.326Z,14.23
2023-03-06T13:14:55.244Z,13.60
2023-03-06T13:17:27.351Z,13.52
2023-03-06T13:20:10.252Z,12.90
2023-03-06T13:22:38.031Z,12.65
2023-03-06T13:25:21.036Z,13.02
2023-03-06T13:28:00.923Z,12.80
2023-03-06T13:30:43.528Z,14.50
2023-03-06T13:33:31.456Z,14.38
2023-03-06T13:36:00.320Z,15.20
2023-03-06T13:38:33.145Z,12.88
2023-03-06T13:41:20.067Z,12.98
2023-03-06T13:43:49.714Z,13.18
2023-03-06T13:46:24.790Z,15.77
2023-03-06T13:49:04.522Z,13.73
2023-03-06T13:51:34.621Z,18.02
2023-03-06T13:54:21.506Z,13.90
2023-03-06T13:57:10.505Z,12.15
2023-03-06T14:00:08.778Z,12.70
2023-03-06T14:02:42.577Z,12.63
2023-03-06T14:05:13.003Z,12.23
2023-03-06T14:07:43.000Z,12.13
2023-03-06T14:10:21.004Z,12.32
2023-03-06T14:13:06.797Z,12.43
2023-03-06T14:15:43.073Z,13.77
2023-03-06T14:18:15.366Z,12.10
2023-03-06T14:20:44.764Z,12.02
2023-03-06T14:23:30.907Z,13.95
2023-03-06T14:26:04.396Z,11.30
2023-03-06T14:28:33.202Z,10.98
2023-03-06T14:31:03.896Z,11.13
2023-03-06T14:33:33.285Z,11.90
2023-03-06T14:36:02.837Z,19.80
2023-03-06T14:38:33.359Z,13.18
2023-03-06T14:41:01.480Z,13.50
2023-03-06T14:43:29.445Z,13.80
2023-03-06T14:45:58.299Z,12.07
2023-03-06T14:48:28.920Z,18.42
2023-03-06T14:50:57.534Z,13.90
2023-03-06T14:53:27.965Z,12.85
2023-03-06T14:55:58.004Z,9.85
2023-03-06T14:58:31.116Z,9.52
2023-03-06T15:01:01.351Z,16.10
2023-03-06T15:03:35.193Z,11.85
2023-03-06T15:06:03.628Z,13.45
2023-03-06T15:08:35.705Z,11.48
2023-03-06T15:11:04.716Z,10.30
2023-03-06T15:13:33.810Z,12.43
2023-03-06T15:16:04.467Z,10.38
2023-03-06T15:18:35.571Z,10.73
2023-03-06T15:21:17.280Z,10.65
2023-03-06T15:23:46.465Z,11.80
2023-03-06T15:26:22.996Z,12.57
2023-03-06T15:29:06.977Z,9.93
2023-03-06T15:31:37.860Z,11.65
2023-03-06T15:34:16.888Z,11.02
2023-03-06T15:36:45.627Z,18.90
2023-03-06T15:39:31.790Z,14.73
2023-03-06T15:41:59.870Z,9.77
2023-03-06T15:44:27.717Z,8.18
2023-03-06T15:47:06.619Z,10.18
2023-03-06T15:49:39.103Z,9.38
2023-03-06T15:52:07.292Z,10.65
2023-03-06T15:54:35.213Z,10.30
2023-03-06T15:57:04.271Z,9.35
2023-03-06T15:59:33.205Z,12.10
2023-03-06T16:02:04.061Z,10.70
2023-03-06T16:04:33.510Z,9.77
2023-03-06T16:07:02.650Z,10.98
2023-03-06T16:09:30.503Z,10.20
2023-03-06T16:11:58.529Z,11.75
2023-03-06T16:14:26.396Z,11.27
2023-03-06T16:16:54.924Z,11.38
2023-03-06T16:19:26.488Z,10.88
2023-03-06T16:21:55.538Z,12.60
2023-03-06T16:24:26.176Z,12.43
2023-03-06T16:26:55.292Z,12.85
2023-03-06T16:29:24.094Z,10.80
2023-03-06T16:31:52.369Z,10.60
2023-03-06T16:34:20.640Z,10.48
2023-03-06T16:36:48.697Z,15.05
2023-03-06T16:39:17.145Z,12.85
2023-03-06T16:41:46.376Z,8.18
2023-03-06T16:44:14.434Z,8.77
2023-03-06T16:46:45.322Z,10.13
2023-03-06T16:49:16.278Z,9.80
2023-03-06T16:51:44.027Z,8.93
2023-03-06T16:54:11.946Z,9.32
2023-03-06T16:56:39.862Z,13.13
2023-03-06T16:59:09.068Z,9.30
2023-03-06T17:01:37.429Z,9.60
2023-03-06T17:04:05.428Z,10.15
2023-03-06T17:06:33.291Z,9.15
2023-03-06T17:09:01.159Z,9.57
2023-03-06T17:11:29.432Z,15.77
2023-03-06T17:13:57.329Z,9.05
2023-03-06T17:16:26.595Z,9.00
2023-03-06T17:18:56.171Z,8.80
2023-03-06T17:21:26.602Z,9.75
2023-03-06T17:23:54.482Z,8.68
2023-03-06T17:26:22.435Z,8.63
2023-03-06T17:28:50.211Z,9.23
2023-03-06T17:31:18.851Z,7.78
2023-03-06T17:33:48.037Z,9.27
2023-03-06T17:36:16.480Z,8.50
2023-03-06T17:38:44.314Z,9.98
2023-03-06T17:41:13.159Z,12.05
2023-03-06T17:43:41.060Z,14.77
2023-03-06T17:46:10.173Z,12.73
2023-03-06T17:48:38.083Z,11.48
2023-03-06T17:51:07.795Z,9.82
2023-03-06T17:53:36.381Z,10.32
2023-03-06T17:56:04.518Z,10.35
2023-03-06T17:58:32.681Z,11.95
2023-03-06T18:01:01.035Z,10.48
2023-03-06T18:03:28.849Z,11.15
2023-03-06T18:06:00.379Z,10.65
2023-03-06T18:08:29.792Z,10.13
2023-03-06T18:10:59.849Z,10.23
2023-03-06T18:13:27.859Z,10.25
2023-03-06T18:15:55.680Z,9.85
2023-03-06T18:18:24.190Z,10.80
2023-03-06T18:20:52.261Z,10.80
2023-03-06T18:23:20.360Z,10.98
2023-03-06T18:25:49.561Z,12.57
2023-03-06T18:28:17.519Z,14.15
2023-03-06T18:30:46.506Z,12.98
2023-03-06T18:33:15.321Z,13.90
2023-03-06T18:35:44.120Z,17.67
2023-03-06T18:38:12.018Z,12.52
2023-03-06T18:40:41.245Z,13.98
2023-03-06T18:43:10.508Z,19.70
2023-03-06T18:45:38.577Z,27.65
2023-03-06T18:48:06.591Z,18.45
2023-03-06T18:50:35.501Z,20.45
2023-03-06T18:53:03.418Z,22.45
2023-03-06T18:55:31.444Z,26.92
2023-03-06T18:57:59.413Z,16.02
2023-03-06T19:00:28.774Z,20.67
2023-03-06T19:02:56.652Z,41.22
2023-03-06T19:05:24.908Z,28.50
2023-03-06T19:07:52.829Z,16.95
2023-03-06T19:10:20.798Z,18.20
2023-03-06T19:12:48.764Z,13.93
2023-03-06T19:15:16.726Z,16.60
2023-03-06T19:17:49.715Z,16.90
2023-03-06T19:20:17.940Z,15.48
2023-03-06T19:22:46.216Z,14.05
2023-03-06T19:25:14.099Z,13.68
2023-03-06T19:27:44.781Z,13.40
2023-03-06T19:30:13.310Z,13.90
2023-03-06T19:32:41.111Z,13.13
2023-03-06T19:35:11.070Z,12.95
2023-03-06T19:37:39.548Z,15.32
2023-03-06T19:40:08.652Z,14.30
2023-03-06T19:42:36.913Z,13.18
2023-03-06T19:45:05.318Z,14.55
2023-03-06T19:47:33.308Z,14.07
2023-03-06T19:50:01.129Z,14.93
2023-03-06T19:52:30.466Z,15.75
2023-03-06T19:54:58.836Z,14.52
2023-03-06T19:57:26.922Z,14.93
2023-03-06T19:59:56.490Z,14.43
2023-03-06T20:02:27.388Z,14.13
2023-03-06T20:04:55.752Z,13.82
2023-03-06T20:07:23.607Z,14.32
2023-03-06T20:09:52.884Z,14.98
2023-03-06T20:12:20.835Z,14.55
2023-03-06T20:14:48.966Z,15.50
2023-03-06T20:17:16.889Z,17.30
2023-03-06T20:19:46.232Z,17.65
2023-03-06T20:22:14.440Z,20.30
2023-03-06T20:24:42.271Z,18.88
2023-03-06T20:27:11.646Z,17.63
2023-03-06T20:29:43.388Z,17.95
2023-03-06T20:32:11.643Z,20.27
2023-03-06T20:34:40.144Z,18.25
2023-03-06T20:37:07.997Z,18.98
2023-03-06T20:39:36.214Z,19.52
2023-03-06T20:42:04.943Z,20.17
2023-03-06T20:44:34.188Z,18.17
2023-03-06T20:47:02.015Z,17.55
2023-03-06T20:49:29.932Z,18.02
2023-03-06T20:51:57.748Z,17.17
2023-03-06T20:54:25.596Z,18.48
2023-03-06T20:56:53.468Z,18.33
2023-03-06T20:59:21.767Z,16.55
2023-03-06T21:01:50.939Z,17.73
2023-03-06T21:04:18.735Z,17.20
2023-03-06T21:06:47.343Z,17.85
2023-03-06T21:09:16.058Z,16.73
2023-03-06T21:11:43.927Z,17.25
2023-03-06T21:14:13.166Z,16.45
2023-03-06T21:16:41.114Z,15.30
2023-03-06T21:19:10.642Z,15.13
2023-03-06T21:21:38.397Z,16.05
2023-03-06T21:24:06.543Z,17.55
2023-03-06T21:26:34.898Z,16.25
2023-03-06T21:29:03.046Z,16.50
2023-03-06T21:31:31.818Z,19.75
2023-03-06T21:33:59.805Z,22.00
2023-03-06T21:36:29.097Z,24.58
2023-03-06T21:38:56.928Z,27.20
2023-03-06T21:41:25.718Z,31.85
2023-03-06T21:43:57.467Z,39.35
2023-03-06T21:46:25.515Z,30.48
2023-03-06T21:48:53.580Z,25.38
2023-03-06T21:51:23.592Z,23.40
2023-03-06T21:53:53.172Z,22.27
2023-03-06T21:56:22.463Z,23.70
2023-03-06T21:58:50.377Z,22.48
2023-03-06T22:01:19.388Z,19.65
2023-03-06T22:03:47.533Z,17.05
2023-03-06T22:06:16.984Z,18.67
2023-03-06T22:08:45.156Z,15.05
2023-03-06T22:11:15.866Z,14.88
2023-03-06T22:13:43.919Z,15.80
2023-03-06T22:16:12.092Z,14.93
2023-03-06T22:18:40.350Z,14.65
2023-03-06T22:21:09.313Z,14.88
2023-03-06T22:23:37.759Z,14.90
2023-03-06T22:26:06.741Z,14.73
2023-03-06T22:28:36.297Z,14.32
2023-03-06T22:31:05.230Z,15.50
2023-03-06T22:33:33.133Z,14.77
2023-03-06T22:36:05.312Z,14.75
2023-03-06T22:38:33.534Z,15.25
2023-03-06T22:41:01.667Z,13.38
2023-03-06T22:43:29.715Z,14.93
2023-03-06T22:46:03.201Z,15.63
2023-03-06T22:48:31.218Z,15.88
2023-03-06T22:51:02.356Z,13.77
2023-03-06T22:53:30.237Z,14.40
2023-03-06T22:55:59.853Z,14.38
2023-03-06T22:58:28.456Z,13.95
2023-03-06T23:00:56.274Z,17.85
2023-03-06T23:03:25.464Z,14.93
2023-03-06T23:05:53.380Z,14.18
2023-03-06T23:08:21.168Z,14.98
2023-03-06T23:10:48.965Z,18.58
2023-03-06T23:13:35.378Z,15.60
2023-03-06T23:16:22.353Z,15.07
2023-03-06T23:19:10.095Z,16.13
2023-03-06T23:21:56.292Z,15.63
2023-03-06T23:24:42.836Z,16.52
2023-03-06T23:27:10.927Z,15.20
2023-03-06T23:29:39.070Z,18.08
2023-03-06T23:32:07.435Z,16.77
2023-03-06T23:34:36.562Z,15.10
2023-03-06T23:37:04.537Z,15.63
2023-03-06T23:39:33.667Z,14.15
2023-03-06T23:42:01.775Z,14.18
2023-03-06T23:44:29.786Z,14.80
2023-03-06T23:46:57.619Z,14.57
2023-03-06T23:49:25.462Z,14.25
2023-03-06T23:51:55.109Z,14.30
2023-03-06T23:54:22.796Z,13.02
2023-03-06T23:56:50.584Z,14.27
2023-03-06T23:59:18.289Z,13.48
